Kigali, Rwanda
Current Conditions -  °F | °C
As of 8:30 PM on Thursday 29 Jan 2015 (Local Time) from HRYR Reporting Station
Scattered Clouds Scattered Clouds  
Wind Chill: 77°   Ceiling: Unl
Heat Index: 79°   Visibility: 6mi
Dew Point: 59°   Wind: 6mph
Humidity: 54%   Direction: 150°SSE
Pressure: 30.06"   Gusts: NA
Location:  1.94°S, 30.06°E
Report Text: HRYR 291830Z 15005KT 9999 FEW025 SCT300 25/15 Q1018 NOSIG
Loading
Personal Weather Stations






























Interactive Weather Map New forecast layout! Learn more

10-Day Weather Forecast

Advertisements
Track Severe Weather on mobile